Airfield :
LOGIN :

Register | Disclaimer

   EN    FR    IT 

 










Legend :    VFR   Marginal VFR   IFR   Intensive IFR   Very Intensive IFR
Visi :
Ceiling :
>= 8 km
>= 3000ft
5 to 8 km
1000 to 3000 ft
1500m to 5 km
500 to 1000 ft
800 to 1500m
200 to 500 ft
< 800m
< 200 ft
Symbols :   Thunderstorms  Fog  Heavy snow  Heavy precipitations  Wind > 20 kt
SIGMETs :     Misc.  Thunderstorms  Icing  Turbulence  Mountain Waves  Volcanic Ashes






- Airport Elevation : 18 ft


LIPC - Cervia AFB Ravenna

CURRENT METAR :
  • 121255Z 29013KT 2500 -RA BR SCT006 BKN010 09/06 Q0998 RMK OVC VIS MIN 2500 WIND THR11 /////KT WIND THR29 29013KT YLO

EXPIRED METARs :
  • 121227Z 29014KT 1500 -RA BR SCT005 BKN010 09/06 Q0998 RMK OVC VIS MIN 1500 WIND THR11 /////KT WIND THR29 29014KT AMB
  • 121155Z 29016KT 8000 FEW007 BKN010 09/06 Q0998 RMK OVC VIS MIN 8000 WIND THR11 /////KT WIND THR29 29016KT GRN
  • 121114Z 29016KT 7000 FEW006 BKN010 09/06 Q0999 RMK OVC VIS MIN 7000 WIND THR11 /////KT WIND THR29 29017KT GRN
  • 121055Z 29014KT 2500 -RA BR SCT005 BKN010 09/06 Q1000 RMK OVC VIS MIN 2500 WIND THR11 /////KT WIND THR29 29014KT YLO

TAF TAF LIPC
Valid from the 12 at 12:00 until the 12 at 21:00 UTC


121100Z 1212/1221 28013KT 2500 BR SCT005 BKN010
TEMPO 1211/1221 1200 RA SCT002 BKN005



MET'MAP, your aeronautical weather chart ! - Copyright ORBIFLY December 2007 - Disclaimer

ORBIFLY MET'MAP TEAM :

Programming & Development : Alexandra Zaïnal
Concept & Development : Baudouin d'Aumeries
Co-Development & Prog : Marc-Olivier Méhu
Technical & hardware support : Manuel Goepfert

Contact : metmap@orbifly.com




SOURCES & CREDITS :

   NOAA